createdAt,value
2023-07-15T00:02:23.965Z,731
2023-07-15T00:07:53.429Z,733
2023-07-15T00:13:23.906Z,723
2023-07-15T00:18:54.388Z,732
2023-07-15T00:24:24.965Z,736
2023-07-15T00:29:55.446Z,735
2023-07-15T00:35:26.029Z,731
2023-07-15T00:46:27.164Z,742
2023-07-15T00:51:57.663Z,744
2023-07-15T00:57:28.158Z,734
2023-07-15T01:02:58.765Z,732
2023-07-15T01:08:29.217Z,735
2023-07-15T01:13:59.699Z,754
2023-07-15T01:19:30.251Z,751
2023-07-15T01:25:00.749Z,791
2023-07-15T01:30:31.217Z,764
2023-07-15T01:37:07.898Z,750
2023-07-15T01:43:44.472Z,753
2023-07-15T01:49:15.222Z,758
2023-07-15T01:54:45.550Z,774
2023-07-15T02:00:16.038Z,766
2023-07-15T02:05:46.691Z,763
2023-07-15T02:11:17.130Z,757
2023-07-15T02:16:47.712Z,754
2023-07-15T02:22:17.113Z,754
2023-07-15T02:27:47.577Z,754
2023-07-15T02:38:47.583Z,762
2023-07-15T02:44:18.001Z,771
2023-07-15T02:49:47.616Z,772
2023-07-15T02:55:18.109Z,769
2023-07-15T03:00:48.568Z,767
2023-07-15T03:06:19.157Z,777
2023-07-15T03:11:49.651Z,780
2023-07-15T03:17:19.179Z,778
2023-07-15T03:22:49.670Z,775
2023-07-15T03:28:20.094Z,778
2023-07-15T03:33:49.587Z,785
2023-07-15T03:39:20.058Z,788
2023-07-15T03:44:50.525Z,782
2023-07-15T03:50:20.029Z,776
2023-07-15T03:55:50.518Z,773
2023-07-15T04:01:21.154Z,764
2023-07-15T04:06:50.636Z,765
2023-07-15T04:12:21.103Z,760
2023-07-15T04:17:50.738Z,762
2023-07-15T04:23:21.215Z,771
2023-07-15T04:28:50.659Z,782
2023-07-15T04:34:22.688Z,785
2023-07-15T04:39:51.606Z,781
2023-07-15T04:45:22.214Z,775
2023-07-15T04:50:52.679Z,771
2023-07-15T04:56:23.167Z,776
2023-07-15T05:01:53.983Z,787
2023-07-15T05:07:24.198Z,794
2023-07-15T05:12:54.796Z,765
2023-07-15T05:18:25.280Z,764
2023-07-15T05:23:55.751Z,699
2023-07-15T05:29:25.224Z,676
2023-07-15T05:34:55.729Z,655
2023-07-15T05:40:26.297Z,643
2023-07-15T05:45:56.770Z,616
2023-07-15T05:51:27.250Z,601
2023-07-15T05:56:58.017Z,585
2023-07-15T06:02:28.339Z,576
2023-07-15T06:07:58.794Z,578
2023-07-15T06:13:30.771Z,572
2023-07-15T06:18:59.986Z,570
2023-07-15T06:24:30.556Z,570
2023-07-15T06:30:01.142Z,566
2023-07-15T06:35:31.627Z,552
2023-07-15T06:46:32.719Z,543
2023-07-15T06:52:03.770Z,541
2023-07-15T06:57:33.642Z,532
2023-07-15T07:03:04.381Z,533
2023-07-15T07:08:34.737Z,532
2023-07-15T07:14:04.220Z,528
2023-07-15T07:19:34.683Z,531
2023-07-15T07:25:05.188Z,530
2023-07-15T07:30:35.842Z,534
2023-07-15T07:36:06.229Z,524
2023-07-15T07:41:36.744Z,529
2023-07-15T07:47:07.316Z,532
2023-07-15T07:52:37.780Z,527
2023-07-15T07:58:08.246Z,524
2023-07-15T08:03:39.068Z,520
2023-07-15T08:09:09.432Z,522
2023-07-15T08:14:39.878Z,526
2023-07-15T08:20:10.464Z,525
2023-07-15T08:25:40.937Z,522
2023-07-15T08:31:10.425Z,520
2023-07-15T08:36:40.915Z,517
2023-07-15T08:43:17.489Z,518
2023-07-15T08:48:48.095Z,515
2023-07-15T08:54:18.544Z,520
2023-07-15T08:59:49.155Z,525
2023-07-15T09:05:19.637Z,524
2023-07-15T09:10:50.102Z,525
2023-07-15T09:16:20.845Z,528
2023-07-15T09:22:57.490Z,526
2023-07-15T09:28:27.893Z,531
2023-07-15T09:33:57.386Z,532
2023-07-15T09:44:58.345Z,531
2023-07-15T09:50:27.824Z,531
2023-07-15T09:55:57.317Z,527
2023-07-15T10:01:27.954Z,522
2023-07-15T10:06:58.346Z,523
2023-07-15T10:12:28.949Z,526
2023-07-15T10:17:59.459Z,527
2023-07-15T10:23:28.924Z,520
2023-07-15T10:28:59.350Z,521
2023-07-15T10:34:29.835Z,520
2023-07-15T10:40:00.438Z,519
2023-07-15T10:45:30.983Z,513
2023-07-15T10:51:01.455Z,515
2023-07-15T10:56:30.971Z,514
2023-07-15T11:02:01.433Z,512
2023-07-15T11:07:31.933Z,515
2023-07-15T11:13:01.436Z,514
2023-07-15T11:18:31.923Z,509
2023-07-15T11:29:31.889Z,507
2023-07-15T11:35:04.908Z,509
2023-07-15T11:40:32.930Z,511
2023-07-15T11:46:03.462Z,506
2023-07-15T11:51:33.897Z,499
2023-07-15T11:57:04.536Z,502
2023-07-15T12:02:35.005Z,502
2023-07-15T12:08:05.603Z,496
2023-07-15T12:13:36.109Z,510
2023-07-15T12:19:06.649Z,497
2023-07-15T12:24:37.133Z,497
2023-07-15T12:30:07.627Z,496
2023-07-15T12:35:38.106Z,498
2023-07-15T12:41:07.587Z,510
2023-07-15T12:46:38.105Z,515
2023-07-15T12:52:07.558Z,527
2023-07-15T12:57:38.134Z,534
2023-07-15T13:03:08.796Z,535
2023-07-15T13:08:38.319Z,535
2023-07-15T13:14:08.594Z,539
2023-07-15T13:19:39.077Z,545
2023-07-15T13:25:09.661Z,554
2023-07-15T13:30:40.122Z,560
2023-07-15T13:36:10.873Z,558
2023-07-15T13:41:40.088Z,582
2023-07-15T13:47:10.558Z,558
2023-07-15T13:52:41.235Z,541
2023-07-15T13:58:11.755Z,531
2023-07-15T14:03:42.191Z,522
2023-07-15T14:09:11.660Z,511
2023-07-15T14:14:42.161Z,508
2023-07-15T14:20:11.650Z,502
2023-07-15T14:25:42.133Z,499
2023-07-15T14:31:12.865Z,494
2023-07-15T14:36:43.089Z,495
2023-07-15T14:42:13.667Z,495
2023-07-15T14:47:44.162Z,487
2023-07-15T14:53:13.767Z,486
2023-07-15T14:58:44.234Z,489
2023-07-15T15:04:14.712Z,494
2023-07-15T15:09:44.220Z,489
2023-07-15T15:15:14.695Z,488
2023-07-15T15:20:45.290Z,493
2023-07-15T15:26:15.769Z,494
2023-07-15T15:31:46.226Z,493
2023-07-15T15:37:16.819Z,488
2023-07-15T15:42:47.296Z,492
2023-07-15T15:48:17.774Z,493
2023-07-15T15:53:47.367Z,489
2023-07-15T15:59:17.848Z,493
2023-07-15T16:04:48.382Z,494
2023-07-15T16:10:18.969Z,493
2023-07-15T16:15:49.422Z,491
2023-07-15T16:21:20.058Z,492
2023-07-15T16:26:50.509Z,487
2023-07-15T16:32:21.173Z,487
2023-07-15T16:37:50.481Z,487
2023-07-15T16:43:23.776Z,488
2023-07-15T16:48:51.561Z,488
2023-07-15T16:54:22.168Z,491
2023-07-15T16:59:52.653Z,490
2023-07-15T17:05:23.120Z,488
2023-07-15T17:16:24.355Z,486
2023-07-15T17:21:54.907Z,494
2023-07-15T17:27:25.390Z,489
2023-07-15T17:32:55.897Z,491
2023-07-15T17:38:26.447Z,491
2023-07-15T17:43:56.915Z,491
2023-07-15T17:49:27.522Z,495
2023-07-15T17:54:59.299Z,490
2023-07-15T18:00:28.460Z,485
2023-07-15T18:05:59.065Z,494
2023-07-15T18:17:00.140Z,493
2023-07-15T18:22:29.661Z,492
2023-07-15T18:28:00.120Z,491
2023-07-15T18:33:30.692Z,490
2023-07-15T18:39:01.176Z,494
2023-07-15T18:44:31.662Z,495
2023-07-15T18:50:02.356Z,498
2023-07-15T18:55:32.794Z,497
2023-07-15T19:01:03.324Z,500
2023-07-15T19:06:32.725Z,502
2023-07-15T19:12:03.249Z,499
2023-07-15T19:17:32.717Z,500
2023-07-15T19:28:33.634Z,500
2023-07-15T19:34:04.236Z,494
2023-07-15T19:39:34.739Z,497
2023-07-15T19:45:05.203Z,501
2023-07-15T19:50:35.892Z,496
2023-07-15T19:56:06.381Z,495
2023-07-15T20:01:36.007Z,495
2023-07-15T20:07:06.337Z,496
2023-07-15T20:12:36.788Z,497
2023-07-15T20:18:06.318Z,495
2023-07-15T20:23:36.756Z,497
2023-07-15T20:34:36.814Z,499
2023-07-15T20:40:07.356Z,492
2023-07-15T20:47:50.146Z,497
2023-07-15T20:53:20.575Z,495
2023-07-15T20:58:51.170Z,495
2023-07-15T21:04:21.786Z,504
2023-07-15T21:09:52.250Z,545
2023-07-15T21:15:21.749Z,574
2023-07-15T21:20:52.220Z,662
2023-07-15T21:26:22.674Z,697
2023-07-15T21:31:53.330Z,729
2023-07-15T21:37:23.765Z,716
2023-07-15T21:42:54.257Z,738
2023-07-15T21:48:24.868Z,735
2023-07-15T21:53:55.349Z,803
2023-07-15T21:59:25.824Z,802
2023-07-15T22:04:55.324Z,872
2023-07-15T22:10:25.799Z,843
2023-07-15T22:15:56.359Z,823
2023-07-15T22:21:26.835Z,829
2023-07-15T22:26:57.364Z,820
2023-07-15T22:33:34.107Z,850
2023-07-15T22:39:04.572Z,824
2023-07-15T22:44:35.040Z,873
2023-07-15T22:50:05.662Z,889
2023-07-15T22:55:36.157Z,895
2023-07-15T23:01:06.627Z,956
2023-07-15T23:06:37.194Z,978
2023-07-15T23:12:07.688Z,969
2023-07-15T23:17:38.369Z,906
2023-07-15T23:23:17.099Z,920
2023-07-15T23:28:39.327Z,925
2023-07-15T23:34:09.889Z,939
2023-07-15T23:39:40.370Z,917
2023-07-15T23:45:10.885Z,986
2023-07-15T23:50:41.561Z,979
2023-07-15T23:56:12.045Z,984
